sensor_id;sensor_type;location;lat;lon;timestamp;temperature;humidity
7542;DHT22;3812;50.006;8.230;2022-07-10T00:47:21;27.80;1.00
7542;DHT22;3812;50.006;8.230;2022-07-10T00:49:48;15.50;1.00
7542;DHT22;3812;50.006;8.230;2022-07-10T00:52:16;15.10;1.00
7542;DHT22;3812;50.006;8.230;2022-07-10T00:54:44;15.00;1.00
7542;DHT22;3812;50.006;8.230;2022-07-10T00:57:13;14.90;1.00
7542;DHT22;3812;50.006;8.230;2022-07-10T00:59:42;14.90;1.00
7542;DHT22;3812;50.006;8.230;2022-07-10T01:02:10;14.90;1.00
7542;DHT22;3812;50.006;8.230;2022-07-10T01:04:37;14.80;1.00
7542;DHT22;3812;50.006;8.230;2022-07-10T01:07:04;14.80;1.00
7542;DHT22;3812;50.006;8.230;2022-07-10T01:09:32;14.80;1.00
7542;DHT22;3812;50.006;8.230;2022-07-10T01:12:00;14.70;1.00
7542;DHT22;3812;50.006;8.230;2022-07-10T01:14:28;14.80;1.00
7542;DHT22;3812;50.006;8.230;2022-07-10T01:16:57;14.80;1.00
7542;DHT22;3812;50.006;8.230;2022-07-10T01:19:24;14.80;1.00
7542;DHT22;3812;50.006;8.230;2022-07-10T01:21:52;14.80;1.00
7542;DHT22;3812;50.006;8.230;2022-07-10T01:24:20;14.90;1.00
7542;DHT22;3812;50.006;8.230;2022-07-10T01:26:48;14.90;1.00
7542;DHT22;3812;50.006;8.230;2022-07-10T01:29:15;14.90;1.00
7542;DHT22;3812;50.006;8.230;2022-07-10T01:31:42;14.90;1.00
7542;DHT22;3812;50.006;8.230;2022-07-10T01:34:09;14.80;1.00
7542;DHT22;3812;50.006;8.230;2022-07-10T01:36:37;14.80;1.00
7542;DHT22;3812;50.006;8.230;2022-07-10T01:39:06;14.70;1.00
7542;DHT22;3812;50.006;8.230;2022-07-10T01:41:34;14.80;1.00
7542;DHT22;3812;50.006;8.230;2022-07-10T01:44:01;14.70;1.00
7542;DHT22;3812;50.006;8.230;2022-07-10T01:46:28;14.70;1.00
7542;DHT22;3812;50.006;8.230;2022-07-10T01:48:56;14.70;1.00
7542;DHT22;3812;50.006;8.230;2022-07-10T01:51:23;14.70;1.00
7542;DHT22;3812;50.006;8.230;2022-07-10T01:53:50;14.70;1.00
7542;DHT22;3812;50.006;8.230;2022-07-10T01:56:18;14.70;1.00
7542;DHT22;3812;50.006;8.230;2022-07-10T01:58:45;14.80;1.00
7542;DHT22;3812;50.006;8.230;2022-07-10T02:01:12;14.80;1.00
7542;DHT22;3812;50.006;8.230;2022-07-10T02:03:39;14.80;1.00
7542;DHT22;3812;50.006;8.230;2022-07-10T02:06:24;14.80;1.00
7542;DHT22;3812;50.006;8.230;2022-07-10T02:08:51;14.60;1.00
7542;DHT22;3812;50.006;8.230;2022-07-10T02:11:19;14.60;1.00
7542;DHT22;3812;50.006;8.230;2022-07-10T02:13:46;14.60;1.00
7542;DHT22;3812;50.006;8.230;2022-07-10T02:16:13;14.60;1.00
7542;DHT22;3812;50.006;8.230;2022-07-10T02:18:40;14.70;1.00
7542;DHT22;3812;50.006;8.230;2022-07-10T02:21:08;14.70;1.00
7542;DHT22;3812;50.006;8.230;2022-07-10T02:23:35;14.70;1.00
7542;DHT22;3812;50.006;8.230;2022-07-10T02:26:02;14.60;1.00
7542;DHT22;3812;50.006;8.230;2022-07-10T02:28:30;14.60;1.00
7542;DHT22;3812;50.006;8.230;2022-07-10T02:30:57;14.50;1.00
7542;DHT22;3812;50.006;8.230;2022-07-10T02:33:25;14.40;1.00
7542;DHT22;3812;50.006;8.230;2022-07-10T02:35:52;14.30;1.00
7542;DHT22;3812;50.006;8.230;2022-07-10T02:38:19;14.20;1.00
7542;DHT22;3812;50.006;8.230;2022-07-10T02:40:46;14.30;1.00
7542;DHT22;3812;50.006;8.230;2022-07-10T02:43:15;14.30;1.00
7542;DHT22;3812;50.006;8.230;2022-07-10T02:45:43;14.30;1.00
7542;DHT22;3812;50.006;8.230;2022-07-10T02:48:10;14.30;1.00
7542;DHT22;3812;50.006;8.230;2022-07-10T02:50:37;14.30;1.00
7542;DHT22;3812;50.006;8.230;2022-07-10T02:53:04;14.20;1.00
7542;DHT22;3812;50.006;8.230;2022-07-10T02:55:32;14.20;1.00
7542;DHT22;3812;50.006;8.230;2022-07-10T02:57:59;14.30;1.00
7542;DHT22;3812;50.006;8.230;2022-07-10T03:00:26;14.20;1.00
7542;DHT22;3812;50.006;8.230;2022-07-10T03:02:55;14.20;1.00
7542;DHT22;3812;50.006;8.230;2022-07-10T03:05:22;14.10;1.00
7542;DHT22;3812;50.006;8.230;2022-07-10T03:07:49;14.10;1.00
7542;DHT22;3812;50.006;8.230;2022-07-10T03:10:16;14.10;1.00
7542;DHT22;3812;50.006;8.230;2022-07-10T03:12:43;14.10;1.00
7542;DHT22;3812;50.006;8.230;2022-07-10T03:15:10;14.00;1.00
7542;DHT22;3812;50.006;8.230;2022-07-10T03:17:37;14.00;1.00
7542;DHT22;3812;50.006;8.230;2022-07-10T03:20:08;13.90;1.00
7542;DHT22;3812;50.006;8.230;2022-07-10T03:22:35;13.90;1.00
7542;DHT22;3812;50.006;8.230;2022-07-10T03:25:03;13.80;1.00
7542;DHT22;3812;50.006;8.230;2022-07-10T03:27:30;13.80;1.00
7542;DHT22;3812;50.006;8.230;2022-07-10T03:29:57;13.60;1.00
7542;DHT22;3812;50.006;8.230;2022-07-10T03:32:23;13.60;1.00
7542;DHT22;3812;50.006;8.230;2022-07-10T03:34:50;13.50;1.00
7542;DHT22;3812;50.006;8.230;2022-07-10T03:37:19;13.50;1.00
7542;DHT22;3812;50.006;8.230;2022-07-10T03:39:46;13.40;1.00
7542;DHT22;3812;50.006;8.230;2022-07-10T03:42:13;13.30;1.00
7542;DHT22;3812;50.006;8.230;2022-07-10T03:44:40;13.20;1.00
7542;DHT22;3812;50.006;8.230;2022-07-10T03:47:07;13.30;1.00
7542;DHT22;3812;50.006;8.230;2022-07-10T03:49:34;13.20;1.00
7542;DHT22;3812;50.006;8.230;2022-07-10T03:52:02;13.20;1.00
7542;DHT22;3812;50.006;8.230;2022-07-10T03:54:30;13.20;1.00
7542;DHT22;3812;50.006;8.230;2022-07-10T03:56:58;13.10;1.00
7542;DHT22;3812;50.006;8.230;2022-07-10T03:59:42;13.10;1.00
7542;DHT22;3812;50.006;8.230;2022-07-10T04:02:09;13.10;1.00
7542;DHT22;3812;50.006;8.230;2022-07-10T04:04:36;13.10;1.00
7542;DHT22;3812;50.006;8.230;2022-07-10T04:07:03;13.30;1.00
7542;DHT22;3812;50.006;8.230;2022-07-10T04:09:32;13.30;1.00
7542;DHT22;3812;50.006;8.230;2022-07-10T04:11:59;13.30;1.00
7542;DHT22;3812;50.006;8.230;2022-07-10T04:14:26;13.40;1.00
7542;DHT22;3812;50.006;8.230;2022-07-10T04:16:53;13.50;1.00
7542;DHT22;3812;50.006;8.230;2022-07-10T04:19:20;13.50;1.00
7542;DHT22;3812;50.006;8.230;2022-07-10T04:21:48;13.50;1.00
7542;DHT22;3812;50.006;8.230;2022-07-10T04:24:15;13.50;1.00
7542;DHT22;3812;50.006;8.230;2022-07-10T04:26:43;13.60;1.00
7542;DHT22;3812;50.006;8.230;2022-07-10T04:29:11;13.60;1.00
7542;DHT22;3812;50.006;8.230;2022-07-10T04:31:37;13.60;1.00
7542;DHT22;3812;50.006;8.230;2022-07-10T04:34:04;13.60;1.00
7542;DHT22;3812;50.006;8.230;2022-07-10T04:36:31;13.60;1.00
7542;DHT22;3812;50.006;8.230;2022-07-10T04:38:58;13.60;1.00
7542;DHT22;3812;50.006;8.230;2022-07-10T04:41:25;13.70;1.00
7542;DHT22;3812;50.006;8.230;2022-07-10T04:43:53;13.80;1.00
7542;DHT22;3812;50.006;8.230;2022-07-10T04:46:20;13.80;1.00
7542;DHT22;3812;50.006;8.230;2022-07-10T04:48:47;13.80;1.00
7542;DHT22;3812;50.006;8.230;2022-07-10T04:51:14;13.90;1.00
7542;DHT22;3812;50.006;8.230;2022-07-10T04:53:41;14.00;1.00
7542;DHT22;3812;50.006;8.230;2022-07-10T04:56:08;14.10;1.00
7542;DHT22;3812;50.006;8.230;2022-07-10T04:58:35;14.10;1.00
7542;DHT22;3812;50.006;8.230;2022-07-10T05:01:03;14.10;1.00
7542;DHT22;3812;50.006;8.230;2022-07-10T05:03:30;14.10;1.00
7542;DHT22;3812;50.006;8.230;2022-07-10T05:05:57;14.10;1.00
7542;DHT22;3812;50.006;8.230;2022-07-10T05:08:24;14.20;1.00
7542;DHT22;3812;50.006;8.230;2022-07-10T05:10:51;14.20;1.00
7542;DHT22;3812;50.006;8.230;2022-07-10T05:13:18;14.20;1.00
7542;DHT22;3812;50.006;8.230;2022-07-10T05:15:45;14.10;1.00
7542;DHT22;3812;50.006;8.230;2022-07-10T05:18:14;14.20;1.00
7542;DHT22;3812;50.006;8.230;2022-07-10T05:20:41;14.20;1.00
7542;DHT22;3812;50.006;8.230;2022-07-10T05:23:09;14.30;1.00
7542;DHT22;3812;50.006;8.230;2022-07-10T05:25:37;14.30;1.00
7542;DHT22;3812;50.006;8.230;2022-07-10T05:28:04;14.40;1.00
7542;DHT22;3812;50.006;8.230;2022-07-10T05:30:31;14.70;1.00
7542;DHT22;3812;50.006;8.230;2022-07-10T05:32:59;14.80;1.00
7542;DHT22;3812;50.006;8.230;2022-07-10T05:35:27;14.70;1.00
7542;DHT22;3812;50.006;8.230;2022-07-10T05:37:54;14.70;1.00
7542;DHT22;3812;50.006;8.230;2022-07-10T05:40:21;14.80;1.00
7542;DHT22;3812;50.006;8.230;2022-07-10T05:42:48;14.70;1.00
7542;DHT22;3812;50.006;8.230;2022-07-10T05:45:16;14.90;1.00
7542;DHT22;3812;50.006;8.230;2022-07-10T05:47:43;15.00;1.00
7542;DHT22;3812;50.006;8.230;2022-07-10T05:50:10;14.90;1.00
7542;DHT22;3812;50.006;8.230;2022-07-10T05:52:39;15.10;1.00
7542;DHT22;3812;50.006;8.230;2022-07-10T05:55:07;15.10;1.00
7542;DHT22;3812;50.006;8.230;2022-07-10T05:57:34;15.10;1.00
7542;DHT22;3812;50.006;8.230;2022-07-10T06:00:02;15.10;1.00
7542;DHT22;3812;50.006;8.230;2022-07-10T06:02:37;15.00;1.00
7542;DHT22;3812;50.006;8.230;2022-07-10T06:05:05;15.00;1.00
7542;DHT22;3812;50.006;8.230;2022-07-10T06:07:32;15.20;1.00
7542;DHT22;3812;50.006;8.230;2022-07-10T06:10:01;15.20;1.00
7542;DHT22;3812;50.006;8.230;2022-07-10T06:12:28;15.40;1.00
7542;DHT22;3812;50.006;8.230;2022-07-10T06:14:55;15.50;1.00
7542;DHT22;3812;50.006;8.230;2022-07-10T06:17:22;15.50;1.00
7542;DHT22;3812;50.006;8.230;2022-07-10T06:19:49;15.70;1.00
7542;DHT22;3812;50.006;8.230;2022-07-10T06:22:16;15.60;1.00
7542;DHT22;3812;50.006;8.230;2022-07-10T06:24:58;15.60;1.00
7542;DHT22;3812;50.006;8.230;2022-07-10T06:27:27;15.70;1.00
7542;DHT22;3812;50.006;8.230;2022-07-10T06:29:54;15.90;1.00
7542;DHT22;3812;50.006;8.230;2022-07-10T06:32:22;15.80;1.00
7542;DHT22;3812;50.006;8.230;2022-07-10T06:34:50;15.70;1.00
7542;DHT22;3812;50.006;8.230;2022-07-10T06:37:17;15.60;1.00
7542;DHT22;3812;50.006;8.230;2022-07-10T06:39:45;15.70;1.00
7542;DHT22;3812;50.006;8.230;2022-07-10T06:42:12;15.80;1.00
7542;DHT22;3812;50.006;8.230;2022-07-10T06:44:42;15.70;1.00
7542;DHT22;3812;50.006;8.230;2022-07-10T06:47:10;15.60;1.00
7542;DHT22;3812;50.006;8.230;2022-07-10T06:49:55;15.70;1.00
7542;DHT22;3812;50.006;8.230;2022-07-10T06:52:22;15.80;1.00
7542;DHT22;3812;50.006;8.230;2022-07-10T06:54:49;15.80;1.00
7542;DHT22;3812;50.006;8.230;2022-07-10T06:57:17;15.80;1.00
7542;DHT22;3812;50.006;8.230;2022-07-10T06:59:46;15.90;1.00
7542;DHT22;3812;50.006;8.230;2022-07-10T07:02:13;16.10;1.00
7542;DHT22;3812;50.006;8.230;2022-07-10T07:04:40;16.40;1.00
7542;DHT22;3812;50.006;8.230;2022-07-10T07:07:07;16.60;1.00
7542;DHT22;3812;50.006;8.230;2022-07-10T07:09:34;17.00;1.00
7542;DHT22;3812;50.006;8.230;2022-07-10T07:12:02;17.20;1.00
7542;DHT22;3812;50.006;8.230;2022-07-10T07:14:29;17.10;1.00
7542;DHT22;3812;50.006;8.230;2022-07-10T07:16:57;17.20;1.00
7542;DHT22;3812;50.006;8.230;2022-07-10T07:19:26;17.30;1.00
7542;DHT22;3812;50.006;8.230;2022-07-10T07:21:58;17.60;1.00
7542;DHT22;3812;50.006;8.230;2022-07-10T07:24:42;17.80;1.00
7542;DHT22;3812;50.006;8.230;2022-07-10T07:27:10;18.00;1.00
7542;DHT22;3812;50.006;8.230;2022-07-10T07:29:37;18.30;1.00
7542;DHT22;3812;50.006;8.230;2022-07-10T07:32:06;18.20;1.00
7542;DHT22;3812;50.006;8.230;2022-07-10T07:34:33;18.00;1.00
7542;DHT22;3812;50.006;8.230;2022-07-10T07:37:00;18.10;1.00
7542;DHT22;3812;50.006;8.230;2022-07-10T07:39:27;18.30;1.00
7542;DHT22;3812;50.006;8.230;2022-07-10T07:41:54;18.30;1.00
7542;DHT22;3812;50.006;8.230;2022-07-10T07:44:21;18.40;1.00
7542;DHT22;3812;50.006;8.230;2022-07-10T07:46:47;18.60;1.00
7542;DHT22;3812;50.006;8.230;2022-07-10T07:49:16;18.60;1.00
7542;DHT22;3812;50.006;8.230;2022-07-10T07:51:43;18.70;1.00
7542;DHT22;3812;50.006;8.230;2022-07-10T07:54:10;18.70;1.00
7542;DHT22;3812;50.006;8.230;2022-07-10T07:56:37;18.40;1.00
7542;DHT22;3812;50.006;8.230;2022-07-10T07:59:04;18.30;1.00
7542;DHT22;3812;50.006;8.230;2022-07-10T08:01:31;18.50;1.00
7542;DHT22;3812;50.006;8.230;2022-07-10T08:03:57;18.80;1.00
7542;DHT22;3812;50.006;8.230;2022-07-10T08:06:26;19.00;1.00
7542;DHT22;3812;50.006;8.230;2022-07-10T08:08:53;19.30;1.00
7542;DHT22;3812;50.006;8.230;2022-07-10T08:11:19;19.50;1.00
7542;DHT22;3812;50.006;8.230;2022-07-10T08:13:46;19.40;1.00
7542;DHT22;3812;50.006;8.230;2022-07-10T08:16:13;18.80;1.00
7542;DHT22;3812;50.006;8.230;2022-07-10T08:18:40;19.00;1.00
7542;DHT22;3812;50.006;8.230;2022-07-10T08:21:07;19.30;1.00
7542;DHT22;3812;50.006;8.230;2022-07-10T08:23:35;19.50;1.00
7542;DHT22;3812;50.006;8.230;2022-07-10T08:26:02;19.70;1.00
7542;DHT22;3812;50.006;8.230;2022-07-10T08:28:29;19.50;1.00
7542;DHT22;3812;50.006;8.230;2022-07-10T08:30:56;18.90;1.00
7542;DHT22;3812;50.006;8.230;2022-07-10T08:33:23;18.30;1.00
7542;DHT22;3812;50.006;8.230;2022-07-10T08:35:50;18.30;1.00
7542;DHT22;3812;50.006;8.230;2022-07-10T08:38:17;17.50;1.00
7542;DHT22;3812;50.006;8.230;2022-07-10T08:40:46;17.50;1.00
7542;DHT22;3812;50.006;8.230;2022-07-10T08:43:13;18.00;1.00
7542;DHT22;3812;50.006;8.230;2022-07-10T08:45:40;18.60;1.00
7542;DHT22;3812;50.006;8.230;2022-07-10T08:48:07;19.00;1.00
7542;DHT22;3812;50.006;8.230;2022-07-10T08:50:38;19.10;1.00
7542;DHT22;3812;50.006;8.230;2022-07-10T08:53:13;19.30;1.00
7542;DHT22;3812;50.006;8.230;2022-07-10T08:55:42;19.30;1.00
7542;DHT22;3812;50.006;8.230;2022-07-10T08:58:12;19.40;1.00
7542;DHT22;3812;50.006;8.230;2022-07-10T09:00:39;19.50;1.00
7542;DHT22;3812;50.006;8.230;2022-07-10T09:03:07;19.40;1.00
7542;DHT22;3812;50.006;8.230;2022-07-10T09:05:34;19.20;1.00
7542;DHT22;3812;50.006;8.230;2022-07-10T09:08:01;19.20;1.00
7542;DHT22;3812;50.006;8.230;2022-07-10T09:10:28;19.40;1.00
7542;DHT22;3812;50.006;8.230;2022-07-10T09:12:57;19.60;1.00
7542;DHT22;3812;50.006;8.230;2022-07-10T09:15:27;20.10;1.00
7542;DHT22;3812;50.006;8.230;2022-07-10T09:17:57;20.70;1.00
7542;DHT22;3812;50.006;8.230;2022-07-10T09:20:25;20.90;1.00
7542;DHT22;3812;50.006;8.230;2022-07-10T09:22:52;21.10;1.00
7542;DHT22;3812;50.006;8.230;2022-07-10T09:25:19;20.10;1.00
7542;DHT22;3812;50.006;8.230;2022-07-10T09:27:53;19.60;1.00
7542;DHT22;3812;50.006;8.230;2022-07-10T09:30:35;18.90;1.00
7542;DHT22;3812;50.006;8.230;2022-07-10T09:33:16;18.60;1.00
7542;DHT22;3812;50.006;8.230;2022-07-10T09:36:04;18.70;1.00
7542;DHT22;3812;50.006;8.230;2022-07-10T09:38:51;18.90;1.00
7542;DHT22;3812;50.006;8.230;2022-07-10T09:41:26;18.90;1.00
7542;DHT22;3812;50.006;8.230;2022-07-10T09:43:55;19.10;1.00
7542;DHT22;3812;50.006;8.230;2022-07-10T09:46:25;18.90;1.00
7542;DHT22;3812;50.006;8.230;2022-07-10T09:49:01;18.70;1.00
7542;DHT22;3812;50.006;8.230;2022-07-10T09:51:30;18.80;1.00
7542;DHT22;3812;50.006;8.230;2022-07-10T09:54:00;19.00;1.00
7542;DHT22;3812;50.006;8.230;2022-07-10T09:56:32;19.20;1.00
7542;DHT22;3812;50.006;8.230;2022-07-10T09:59:00;19.40;1.00
7542;DHT22;3812;50.006;8.230;2022-07-10T10:01:29;19.70;1.00
7542;DHT22;3812;50.006;8.230;2022-07-10T10:03:58;20.50;1.00
7542;DHT22;3812;50.006;8.230;2022-07-10T10:06:29;21.20;1.00
7542;DHT22;3812;50.006;8.230;2022-07-10T10:08:59;21.40;1.00
7542;DHT22;3812;50.006;8.230;2022-07-10T10:11:27;20.90;1.00
7542;DHT22;3812;50.006;8.230;2022-07-10T10:13:54;21.60;1.00
7542;DHT22;3812;50.006;8.230;2022-07-10T10:16:22;21.20;1.00
7542;DHT22;3812;50.006;8.230;2022-07-10T10:18:51;21.50;1.00
7542;DHT22;3812;50.006;8.230;2022-07-10T10:21:42;21.60;1.00
7542;DHT22;3812;50.006;8.230;2022-07-10T10:24:10;21.80;1.00
7542;DHT22;3812;50.006;8.230;2022-07-10T10:26:37;21.50;1.00
7542;DHT22;3812;50.006;8.230;2022-07-10T10:29:06;20.60;1.00
7542;DHT22;3812;50.006;8.230;2022-07-10T10:31:33;20.40;1.00
7542;DHT22;3812;50.006;8.230;2022-07-10T10:34:02;19.80;1.00
7542;DHT22;3812;50.006;8.230;2022-07-10T10:36:46;20.60;1.00
7542;DHT22;3812;50.006;8.230;2022-07-10T10:39:17;21.10;1.00
7542;DHT22;3812;50.006;8.230;2022-07-10T10:41:50;21.70;1.00
7542;DHT22;3812;50.006;8.230;2022-07-10T10:44:25;21.90;1.00
7542;DHT22;3812;50.006;8.230;2022-07-10T10:46:56;21.50;1.00
7542;DHT22;3812;50.006;8.230;2022-07-10T10:49:56;21.60;1.00
7542;DHT22;3812;50.006;8.230;2022-07-10T10:52:25;21.40;1.00
7542;DHT22;3812;50.006;8.230;2022-07-10T10:55:03;21.30;1.00
7542;DHT22;3812;50.006;8.230;2022-07-10T10:57:38;21.40;1.00
7542;DHT22;3812;50.006;8.230;2022-07-10T11:00:13;21.90;1.00
7542;DHT22;3812;50.006;8.230;2022-07-10T11:02:42;22.60;1.00
7542;DHT22;3812;50.006;8.230;2022-07-10T11:08:12;21.10;1.00
7542;DHT22;3812;50.006;8.230;2022-07-10T11:10:41;21.20;1.00
7542;DHT22;3812;50.006;8.230;2022-07-10T11:13:09;22.10;1.00
7542;DHT22;3812;50.006;8.230;2022-07-10T11:15:37;23.40;1.00
7542;DHT22;3812;50.006;8.230;2022-07-10T11:18:08;24.80;1.00
7542;DHT22;3812;50.006;8.230;2022-07-10T11:20:36;24.90;1.00
7542;DHT22;3812;50.006;8.230;2022-07-10T11:26:02;24.80;1.00
7542;DHT22;3812;50.006;8.230;2022-07-10T11:28:52;23.60;1.00
7542;DHT22;3812;50.006;8.230;2022-07-10T11:31:26;23.60;1.00
7542;DHT22;3812;50.006;8.230;2022-07-10T11:33:54;22.30;1.00
7542;DHT22;3812;50.006;8.230;2022-07-10T11:36:23;22.40;1.00
7542;DHT22;3812;50.006;8.230;2022-07-10T11:38:57;23.00;1.00
7542;DHT22;3812;50.006;8.230;2022-07-10T11:41:27;22.40;1.00
7542;DHT22;3812;50.006;8.230;2022-07-10T11:43:55;21.40;1.00
7542;DHT22;3812;50.006;8.230;2022-07-10T11:46:24;21.40;1.00
7542;DHT22;3812;50.006;8.230;2022-07-10T11:48:52;21.80;1.00
7542;DHT22;3812;50.006;8.230;2022-07-10T11:51:24;22.00;1.00
7542;DHT22;3812;50.006;8.230;2022-07-10T11:53:56;22.40;1.00
7542;DHT22;3812;50.006;8.230;2022-07-10T11:56:24;22.70;1.00
7542;DHT22;3812;50.006;8.230;2022-07-10T11:58:56;22.00;1.00
7542;DHT22;3812;50.006;8.230;2022-07-10T12:01:24;22.40;1.00
7542;DHT22;3812;50.006;8.230;2022-07-10T12:03:56;22.80;1.00
7542;DHT22;3812;50.006;8.230;2022-07-10T12:06:23;23.50;1.00
7542;DHT22;3812;50.006;8.230;2022-07-10T12:08:51;23.70;1.00
7542;DHT22;3812;50.006;8.230;2022-07-10T12:11:20;24.10;1.00
7542;DHT22;3812;50.006;8.230;2022-07-10T12:13:49;23.80;1.00
7542;DHT22;3812;50.006;8.230;2022-07-10T12:16:17;24.50;1.00
7542;DHT22;3812;50.006;8.230;2022-07-10T12:18:45;23.80;1.00
7542;DHT22;3812;50.006;8.230;2022-07-10T12:21:14;23.40;1.00
7542;DHT22;3812;50.006;8.230;2022-07-10T12:23:42;23.70;1.00
7542;DHT22;3812;50.006;8.230;2022-07-10T12:26:11;23.80;1.00
7542;DHT22;3812;50.006;8.230;2022-07-10T12:28:52;24.30;1.00
7542;DHT22;3812;50.006;8.230;2022-07-10T12:31:22;25.50;1.00
7542;DHT22;3812;50.006;8.230;2022-07-10T12:33:53;27.00;1.00
7542;DHT22;3812;50.006;8.230;2022-07-10T12:36:24;30.30;1.00
7542;DHT22;3812;50.006;8.230;2022-07-10T12:38:55;28.80;1.00
7542;DHT22;3812;50.006;8.230;2022-07-10T12:41:24;27.50;1.00
7542;DHT22;3812;50.006;8.230;2022-07-10T12:43:52;26.40;1.00
7542;DHT22;3812;50.006;8.230;2022-07-10T12:46:22;25.70;1.00
7542;DHT22;3812;50.006;8.230;2022-07-10T12:49:04;26.30;1.00
7542;DHT22;3812;50.006;8.230;2022-07-10T12:51:32;25.60;1.00
7542;DHT22;3812;50.006;8.230;2022-07-10T12:54:00;25.80;1.00
7542;DHT22;3812;50.006;8.230;2022-07-10T12:56:33;25.60;1.00
7542;DHT22;3812;50.006;8.230;2022-07-10T12:59:01;27.90;1.00
7542;DHT22;3812;50.006;8.230;2022-07-10T13:01:39;30.00;1.00
7542;DHT22;3812;50.006;8.230;2022-07-10T13:04:06;31.10;1.00
7542;DHT22;3812;50.006;8.230;2022-07-10T13:06:35;32.90;1.00
7542;DHT22;3812;50.006;8.230;2022-07-10T13:09:03;31.50;1.00
7542;DHT22;3812;50.006;8.230;2022-07-10T13:11:44;33.80;1.00
7542;DHT22;3812;50.006;8.230;2022-07-10T13:14:11;35.50;1.00
7542;DHT22;3812;50.006;8.230;2022-07-10T13:16:39;36.50;1.00
7542;DHT22;3812;50.006;8.230;2022-07-10T13:19:06;36.70;1.00
7542;DHT22;3812;50.006;8.230;2022-07-10T13:21:33;33.30;1.00
7542;DHT22;3812;50.006;8.230;2022-07-10T13:24:00;29.90;1.00
7542;DHT22;3812;50.006;8.230;2022-07-10T13:26:29;28.10;1.00
7542;DHT22;3812;50.006;8.230;2022-07-10T13:28:57;27.40;1.00
7542;DHT22;3812;50.006;8.230;2022-07-10T13:31:25;26.90;1.00
7542;DHT22;3812;50.006;8.230;2022-07-10T13:33:53;26.80;1.00
7542;DHT22;3812;50.006;8.230;2022-07-10T13:36:20;25.40;1.00
7542;DHT22;3812;50.006;8.230;2022-07-10T13:38:47;24.10;1.00
7542;DHT22;3812;50.006;8.230;2022-07-10T13:41:15;23.60;1.00
7542;DHT22;3812;50.006;8.230;2022-07-10T13:43:42;23.10;1.00
7542;DHT22;3812;50.006;8.230;2022-07-10T13:46:10;23.10;1.00
7542;DHT22;3812;50.006;8.230;2022-07-10T13:48:37;23.90;1.00
7542;DHT22;3812;50.006;8.230;2022-07-10T13:51:05;27.00;1.00
7542;DHT22;3812;50.006;8.230;2022-07-10T13:53:32;29.20;1.00
7542;DHT22;3812;50.006;8.230;2022-07-10T13:55:59;29.40;1.00
7542;DHT22;3812;50.006;8.230;2022-07-10T13:58:26;30.10;1.00
7542;DHT22;3812;50.006;8.230;2022-07-10T14:00:53;28.90;1.00
7542;DHT22;3812;50.006;8.230;2022-07-10T14:03:21;28.50;1.00
7542;DHT22;3812;50.006;8.230;2022-07-10T14:05:48;29.40;1.00
7542;DHT22;3812;50.006;8.230;2022-07-10T14:08:16;30.50;1.00
7542;DHT22;3812;50.006;8.230;2022-07-10T14:10:44;30.50;1.00
7542;DHT22;3812;50.006;8.230;2022-07-10T14:13:11;30.00;1.00
7542;DHT22;3812;50.006;8.230;2022-07-10T14:15:38;29.00;1.00
7542;DHT22;3812;50.006;8.230;2022-07-10T14:18:06;27.60;1.00
7542;DHT22;3812;50.006;8.230;2022-07-10T14:20:33;26.50;1.00
7542;DHT22;3812;50.006;8.230;2022-07-10T14:23:22;25.60;1.00
7542;DHT22;3812;50.006;8.230;2022-07-10T14:25:49;24.50;1.00
7542;DHT22;3812;50.006;8.230;2022-07-10T14:28:16;23.80;1.00
7542;DHT22;3812;50.006;8.230;2022-07-10T14:30:43;23.30;1.00
7542;DHT22;3812;50.006;8.230;2022-07-10T14:33:10;22.30;1.00
7542;DHT22;3812;50.006;8.230;2022-07-10T14:35:37;22.60;1.00
7542;DHT22;3812;50.006;8.230;2022-07-10T14:38:03;22.40;1.00
7542;DHT22;3812;50.006;8.230;2022-07-10T14:40:32;22.90;1.00
7542;DHT22;3812;50.006;8.230;2022-07-10T14:42:59;23.40;1.00
7542;DHT22;3812;50.006;8.230;2022-07-10T14:45:26;24.40;1.00
7542;DHT22;3812;50.006;8.230;2022-07-10T14:47:53;24.70;1.00
7542;DHT22;3812;50.006;8.230;2022-07-10T14:50:21;24.70;1.00
7542;DHT22;3812;50.006;8.230;2022-07-10T14:52:48;24.80;1.00
7542;DHT22;3812;50.006;8.230;2022-07-10T14:55:15;24.90;1.00
7542;DHT22;3812;50.006;8.230;2022-07-10T14:57:43;25.10;1.00
7542;DHT22;3812;50.006;8.230;2022-07-10T15:00:11;25.20;1.00
7542;DHT22;3812;50.006;8.230;2022-07-10T15:02:39;25.40;1.00
7542;DHT22;3812;50.006;8.230;2022-07-10T15:05:06;23.70;1.00
7542;DHT22;3812;50.006;8.230;2022-07-10T15:07:33;23.50;1.00
7542;DHT22;3812;50.006;8.230;2022-07-10T15:10:00;23.40;1.00
7542;DHT22;3812;50.006;8.230;2022-07-10T15:12:27;24.10;1.00
7542;DHT22;3812;50.006;8.230;2022-07-10T15:14:58;24.20;1.00
7542;DHT22;3812;50.006;8.230;2022-07-10T15:17:25;24.30;1.00
7542;DHT22;3812;50.006;8.230;2022-07-10T15:19:52;24.40;1.00
7542;DHT22;3812;50.006;8.230;2022-07-10T15:22:19;24.80;1.00
7542;DHT22;3812;50.006;8.230;2022-07-10T15:24:46;24.90;1.00
7542;DHT22;3812;50.006;8.230;2022-07-10T15:27:15;24.80;1.00
7542;DHT22;3812;50.006;8.230;2022-07-10T15:29:42;25.00;1.00
7542;DHT22;3812;50.006;8.230;2022-07-10T15:32:10;26.20;1.00
7542;DHT22;3812;50.006;8.230;2022-07-10T15:34:38;27.70;1.00
7542;DHT22;3812;50.006;8.230;2022-07-10T15:37:05;27.10;1.00
7542;DHT22;3812;50.006;8.230;2022-07-10T15:39:33;26.30;1.00
7542;DHT22;3812;50.006;8.230;2022-07-10T15:42:07;24.90;1.00
7542;DHT22;3812;50.006;8.230;2022-07-10T15:44:34;24.10;1.00
7542;DHT22;3812;50.006;8.230;2022-07-10T15:47:01;24.00;1.00
7542;DHT22;3812;50.006;8.230;2022-07-10T15:49:29;24.40;1.00
7542;DHT22;3812;50.006;8.230;2022-07-10T15:51:56;24.30;1.00
7542;DHT22;3812;50.006;8.230;2022-07-10T15:54:25;23.60;1.00
7542;DHT22;3812;50.006;8.230;2022-07-10T15:56:51;22.80;1.00
7542;DHT22;3812;50.006;8.230;2022-07-10T15:59:18;23.20;1.00
7542;DHT22;3812;50.006;8.230;2022-07-10T16:01:49;23.30;1.00
7542;DHT22;3812;50.006;8.230;2022-07-10T16:04:17;22.40;1.00
7542;DHT22;3812;50.006;8.230;2022-07-10T16:06:45;22.70;1.00
7542;DHT22;3812;50.006;8.230;2022-07-10T16:09:12;22.60;1.00
7542;DHT22;3812;50.006;8.230;2022-07-10T16:11:40;22.70;1.00
7542;DHT22;3812;50.006;8.230;2022-07-10T16:14:07;21.50;1.00
7542;DHT22;3812;50.006;8.230;2022-07-10T16:16:35;21.50;1.00
7542;DHT22;3812;50.006;8.230;2022-07-10T16:19:02;21.70;1.00
7542;DHT22;3812;50.006;8.230;2022-07-10T16:21:29;21.80;1.00
7542;DHT22;3812;50.006;8.230;2022-07-10T16:23:59;21.80;1.00
7542;DHT22;3812;50.006;8.230;2022-07-10T16:26:26;21.30;1.00
7542;DHT22;3812;50.006;8.230;2022-07-10T16:28:53;21.50;1.00
7542;DHT22;3812;50.006;8.230;2022-07-10T16:31:21;22.00;1.00
7542;DHT22;3812;50.006;8.230;2022-07-10T16:33:48;22.40;1.00
7542;DHT22;3812;50.006;8.230;2022-07-10T16:36:15;22.60;1.00
7542;DHT22;3812;50.006;8.230;2022-07-10T16:38:42;22.40;1.00
7542;DHT22;3812;50.006;8.230;2022-07-10T16:41:10;22.20;1.00
7542;DHT22;3812;50.006;8.230;2022-07-10T16:43:37;22.10;1.00
7542;DHT22;3812;50.006;8.230;2022-07-10T16:46:05;21.90;1.00
7542;DHT22;3812;50.006;8.230;2022-07-10T16:48:32;21.60;1.00
7542;DHT22;3812;50.006;8.230;2022-07-10T16:50:59;20.90;1.00
7542;DHT22;3812;50.006;8.230;2022-07-10T16:53:27;20.90;1.00
7542;DHT22;3812;50.006;8.230;2022-07-10T16:55:55;20.90;1.00
7542;DHT22;3812;50.006;8.230;2022-07-10T16:58:23;20.60;1.00
7542;DHT22;3812;50.006;8.230;2022-07-10T17:00:50;20.80;1.00
7542;DHT22;3812;50.006;8.230;2022-07-10T17:03:17;20.80;1.00
7542;DHT22;3812;50.006;8.230;2022-07-10T17:05:44;20.60;1.00
7542;DHT22;3812;50.006;8.230;2022-07-10T17:08:11;20.30;1.00
7542;DHT22;3812;50.006;8.230;2022-07-10T17:10:39;20.40;1.00
7542;DHT22;3812;50.006;8.230;2022-07-10T17:13:07;20.60;1.00
7542;DHT22;3812;50.006;8.230;2022-07-10T17:15:35;20.90;1.00
7542;DHT22;3812;50.006;8.230;2022-07-10T17:18:03;20.60;1.00